首页
METAR-TAF:

METAR-TAF

机场 :

塔什干国际机场

塔什干, 乌兹别克斯坦

纬度: 41-16N, 经度: 069-16E, 海拔: 489米

当前天气观测

该预报发布于47分钟前的16:30 UTC
风速6节,风向
温度 5°C
湿度 87%
气压 1021 hPa
能見度: 4000
轻雾

METAR: UTTT 161630Z 08006KT 4000 BR NSC 05/03 Q1021 R08R/CLRD70 NOSIG

时间: 22:17 (17:17 UTC)

预报

该预报发布于6小时和17分钟前的11:00 UTC
预报有效从16日的 12点(UTC)到 17日的 12点(UTC)
风速10节,风向南转西南
能見度: 5000
散云层高于1000英尺
多云层高于10000英尺
轻雾
短暂存在
从 16日的 12点(UTC)到 16日的 18点(UTC)
能見度: 2000
轻雾
短暂存在
从 16日的 18点(UTC)到 17日的 04点(UTC)
能見度: 0800
散云层高于500英尺

TAF: UTTT 161100Z 1612/1712 20010KT 5000 BR SCT010 BKN100 TEMPO 1612/1618 2000 BR TEMPO 1618/1704 0800 FG SCT005

超过4000个机场的气象观测和天气预报(METAR&TAF报告)。

可查询的气象台以黄色和红色小点在地图上表示。

将鼠标移到小点上方,可查看气象台名称。

然后点击查看天气观测和预报。

如需切换地图:点击带黑十字的绿色按钮放大地图;点击带横线的绿色按钮缩小地图;或者点击绿色箭头查看邻近地区的地图。


METAR-TAF: